Cold Spring Harbor, New York
Current Conditions -  °F | °C
As of 10:53 AM on Thursday 18 Dec 2014 (Local Time) from KFRG Reporting Station
Clear Clear  
Wind Chill: 36°   Ceiling: Unl
Heat Index: 42°   Visibility: 10mi
Dew Point: 23°   Wind: 12mph
Humidity: 47%   Direction: 300°WNW
Pressure: 29.97"   Gusts: 24mph
Location:  40.87°N, 73.46°W
Report Text: KFRG 181553Z 30010G21KT 10SM CLR 06/M05 A2997 RMK AO2 SLP147 T00561050
Loading
Personal Weather Stations






























Interactive Weather Map New forecast layout! Learn more

10-Day Weather Forecast

Advertisements
Track Severe Weather on mobile